Time;durP1;ratioP1;P1;durP2;ratioP2;P2;SDS_P1;SDS_P2;PMS_P1;PMS_P2;Temp;Humidity;BMP_temperature;BMP_pressure;BME280_temperature;BME280_humidity;BME280_pressure;Samples;Min_cycle;Max_cycle;Signal;HPM_P1;HPM_P2
2023/06/16 00:00:43;;;;;;;28.58;15.00;;;;;;;;;;4998893;28;20041;-79
2023/06/16 00:03:09;;;;;;;;;;;;;;;;;;4995960;28;20082;-81
2023/06/16 00:05:35;;;;;;;34.65;15.82;;;;;;;;;;4996376;28;20253;-79
2023/06/16 00:08:02;;;;;;;36.35;16.33;;;;;;;;;;4996569;28;20116;-79
2023/06/16 00:10:28;;;;;;;31.00;16.30;;;;;;;;;;5010493;28;20034;-80
2023/06/16 00:12:53;;;;;;;34.97;16.88;;;;;;;;;;4996525;28;20536;-80
2023/06/16 00:15:20;;;;;;;43.30;17.65;;;;;;;;;;4995264;28;20088;-80
2023/06/16 00:17:46;;;;;;;36.83;17.42;;;;;;;;;;4995518;28;20038;-80
2023/06/16 00:20:15;;;;;;;37.63;16.55;;;;;;;;;;5011336;28;20026;-80
2023/06/16 00:22:41;;;;;;;42.22;16.85;;;;;;;;;;5027902;28;20038;-79
2023/06/16 00:25:08;;;;;;;39.00;17.70;;;;;;;;;;4995164;28;20093;-80
2023/06/16 00:27:34;;;;;;;40.25;18.88;;;;;;;;;;4995433;28;20068;-78
2023/06/16 00:29:59;;;;;;;41.25;18.67;;;;;;;;;;5011631;28;20062;-79
2023/06/16 00:32:25;;;;;;;43.25;20.42;;;;;;;;;;4996134;28;20561;-79
2023/06/16 00:34:50;;;;;;;42.35;19.52;;;;;;;;;;4994729;28;20034;-79
2023/06/16 00:37:16;;;;;;;43.70;20.73;;;;;;;;;;4996116;28;20030;-78
2023/06/16 00:39:41;;;;;;;42.00;21.10;;;;;;;;;;5011351;28;20084;-79
2023/06/16 00:42:07;;;;;;;44.25;20.80;;;;;;;;;;4996157;28;20022;-78
2023/06/16 00:44:32;;;;;;;40.70;20.38;;;;;;;;;;4994580;28;20034;-79
2023/06/16 00:46:57;;;;;;;37.28;19.67;;;;;;;;;;5011100;28;20098;-80
2023/06/16 00:49:23;;;;;;;40.90;20.50;;;;;;;;;;4994741;28;20368;-79
2023/06/16 00:51:48;;;;;;;44.95;20.60;;;;;;;;;;5011001;28;20027;-79
2023/06/16 00:54:15;;;;;;;42.72;20.45;;;;;;;;;;5010926;28;20030;-79
2023/06/16 00:56:41;;;;;;;44.42;20.15;;;;;;;;;;4994476;28;20381;-80
2023/06/16 00:59:07;;;;;;;41.42;20.20;;;;;;;;;;5010626;28;20112;-79
2023/06/16 01:01:34;;;;;;;40.45;19.85;;;;;;;;;;5001939;28;20053;-78
2023/06/16 01:04:00;;;;;;;45.50;20.92;;;;;;;;;;5029894;28;20456;-79
2023/06/16 01:06:32;;;;;;;41.90;19.92;;;;;;;;;;5030666;28;20163;-78
2023/06/16 01:09:17;;;;;;;40.90;20.10;;;;;;;;;;5015141;28;20026;-78
2023/06/16 01:12:10;;;;;;;47.95;20.70;;;;;;;;;;4995872;28;20022;-79
2023/06/16 01:15:16;;;;;;;38.72;18.52;;;;;;;;;;5014882;28;20113;-78
2023/06/16 01:17:44;;;;;;;54.50;19.85;;;;;;;;;;4994737;28;20034;-79
2023/06/16 01:20:10;;;;;;;44.65;20.73;;;;;;;;;;5046104;28;20076;-80
2023/06/16 01:22:55;;;;;;;42.53;21.55;;;;;;;;;;5030151;28;20029;-79
2023/06/16 01:25:24;;;;;;;45.80;19.98;;;;;;;;;;5014778;28;20025;-78
2023/06/16 01:27:51;;;;;;;46.97;21.20;;;;;;;;;;4997459;28;20364;-79
2023/06/16 01:30:19;;;;;;;49.97;21.58;;;;;;;;;;4996950;28;20269;-78
2023/06/16 01:32:46;;;;;;;49.15;22.08;;;;;;;;;;5013221;28;20030;-79
2023/06/16 01:35:12;;;;;;;50.95;22.20;;;;;;;;;;5015119;28;20115;-79
2023/06/16 01:37:38;;;;;;;44.28;21.00;;;;;;;;;;5013529;28;20026;-80
2023/06/16 01:40:05;;;;;;;49.08;22.08;;;;;;;;;;5013308;28;20069;-78
2023/06/16 01:42:30;;;;;;;49.22;21.67;;;;;;;;;;5014458;28;20121;-78
2023/06/16 01:44:56;;;;;;;51.00;22.25;;;;;;;;;;5029644;28;20445;-78
2023/06/16 01:47:21;;;;;;;53.67;22.33;;;;;;;;;;5012999;28;20511;-78
2023/06/16 01:49:48;;;;;;;50.53;22.25;;;;;;;;;;4996921;28;20062;-79
2023/06/16 01:52:14;;;;;;;42.10;22.52;;;;;;;;;;5046168;28;20460;-78
2023/06/16 01:54:39;;;;;;;49.15;21.25;;;;;;;;;;5013284;28;20037;-78
2023/06/16 01:57:05;;;;;;;54.63;22.60;;;;;;;;;;5014309;28;20037;-78
2023/06/16 01:59:31;;;;;;;53.63;21.80;;;;;;;;;;4996608;28;20029;-78
2023/06/16 02:01:59;;;;;;;44.30;21.88;;;;;;;;;;4996381;28;20133;-78
2023/06/16 02:04:24;;;;;;;51.53;22.02;;;;;;;;;;5045913;28;20026;-77
2023/06/16 02:07:11;;;;;;;47.58;21.75;;;;;;;;;;5014312;28;20048;-78
2023/06/16 02:09:37;;;;;;;43.13;21.85;;;;;;;;;;4996552;28;20414;-78
2023/06/16 02:12:05;;;;;;;46.72;21.40;;;;;;;;;;4996387;28;20117;-78
2023/06/16 02:14:31;;;;;;;45.00;22.17;;;;;;;;;;5029278;28;20026;-78
2023/06/16 02:16:57;;;;;;;49.33;21.70;;;;;;;;;;5012429;28;20072;-78
2023/06/16 02:19:23;;;;;;;45.65;20.73;;;;;;;;;;5014275;28;20026;-79
2023/06/16 02:21:49;;;;;;;50.13;22.27;;;;;;;;;;5014071;28;20044;-79
2023/06/16 02:24:14;;;;;;;41.97;21.35;;;;;;;;;;5013810;28;20125;-79
2023/06/16 02:26:39;;;;;;;57.97;23.23;;;;;;;;;;5012670;28;20464;-78
2023/06/16 02:29:05;;;;;;;49.38;23.48;;;;;;;;;;4996362;28;20335;-78
2023/06/16 02:31:30;;;;;;;51.92;23.75;;;;;;;;;;5012679;28;20428;-79
2023/06/16 02:33:56;;;;;;;62.50;23.50;;;;;;;;;;5015393;28;20022;-78
2023/06/16 02:36:21;;;;;;;53.78;23.63;;;;;;;;;;5016791;28;20026;-77
2023/06/16 02:38:47;;;;;;;51.65;24.45;;;;;;;;;;5016874;28;20359;-78
2023/06/16 02:41:13;;;;;;;49.58;23.65;;;;;;;;;;5033148;28;20026;-79
2023/06/16 02:43:38;;;;;;;51.33;24.65;;;;;;;;;;5033003;28;20349;-78
2023/06/16 02:46:04;;;;;;;49.80;22.65;;;;;;;;;;5017464;28;20033;-79
2023/06/16 02:48:29;;;;;;;53.47;24.17;;;;;;;;;;5017670;28;20029;-79
2023/06/16 02:50:55;;;;;;;59.63;24.40;;;;;;;;;;5033105;28;20025;-79
2023/06/16 02:53:21;;;;;;;47.42;24.10;;;;;;;;;;5016517;28;20034;-78
2023/06/16 02:55:47;;;;;;;55.10;23.45;;;;;;;;;;5032847;28;20021;-79
2023/06/16 02:58:12;;;;;;;53.08;24.05;;;;;;;;;;5033110;28;20030;-79
2023/06/16 03:00:38;;;;;;;58.03;23.98;;;;;;;;;;5017198;28;20032;-78
2023/06/16 03:03:04;;;;;;;51.30;23.55;;;;;;;;;;4999814;28;20053;-79
2023/06/16 03:05:31;;;;;;;48.65;23.65;;;;;;;;;;4999862;28;20033;-79
2023/06/16 03:07:57;;;;;;;44.03;23.08;;;;;;;;;;5017603;28;20116;-78
2023/06/16 03:10:22;;;;;;;51.13;24.67;;;;;;;;;;5016251;28;20120;-78
2023/06/16 03:12:48;;;;;;;54.25;24.58;;;;;;;;;;5017298;28;20517;-78
2023/06/16 03:15:13;;;;;;;45.80;22.33;;;;;;;;;;5017006;28;20447;-78
2023/06/16 03:17:38;;;;;;;49.70;23.05;;;;;;;;;;5015888;28;20225;-78
2023/06/16 03:20:05;;;;;;;48.55;22.38;;;;;;;;;;5017112;28;20104;-78
2023/06/16 03:22:31;;;;;;;55.80;23.55;;;;;;;;;;5016893;28;20121;-79
2023/06/16 03:25:02;;;;;;;45.08;22.30;;;;;;;;;;4999543;28;20117;-79
2023/06/16 03:27:28;;;;;;;49.85;23.83;;;;;;;;;;5031566;28;20033;-80
2023/06/16 03:29:54;;;;;;;48.53;23.50;;;;;;;;;;5031879;28;20075;-79
2023/06/16 03:32:19;;;;;;;55.42;23.10;;;;;;;;;;5016936;28;20022;-80
2023/06/16 03:34:46;;;;;;;53.58;22.92;;;;;;;;;;4999403;28;20037;-79
2023/06/16 03:37:11;;;;;;;54.00;24.63;;;;;;;;;;5016807;28;20026;-79
2023/06/16 03:39:37;;;;;;;46.28;23.30;;;;;;;;;;5032066;28;20462;-79
2023/06/16 03:42:03;;;;;;;50.95;22.17;;;;;;;;;;5032418;28;20022;-80
2023/06/16 03:44:28;;;;;;;49.22;22.42;;;;;;;;;;4998462;28;20038;-78
2023/06/16 03:46:53;;;;;;;54.55;23.02;;;;;;;;;;4998287;28;20046;-79
2023/06/16 03:49:19;;;;;;;48.53;21.75;;;;;;;;;;5016838;28;20038;-79
2023/06/16 03:51:45;;;;;;;59.72;23.15;;;;;;;;;;4999092;28;20419;-79
2023/06/16 03:54:11;;;;;;;46.47;21.90;;;;;;;;;;4998952;28;20541;-79
2023/06/16 03:56:37;;;;;;;52.97;22.27;;;;;;;;;;5031669;28;20100;-79
2023/06/16 03:59:02;;;;;;;45.55;21.40;;;;;;;;;;4998629;28;20029;-79
2023/06/16 04:01:29;;;;;;;44.28;22.45;;;;;;;;;;5031740;28;20048;-79
2023/06/16 04:03:54;;;;;;;41.78;20.92;;;;;;;;;;5031451;28;20045;-79
2023/06/16 04:06:19;;;;;;;46.05;22.48;;;;;;;;;;5016356;28;20026;-79
2023/06/16 04:08:46;;;;;;;45.92;22.50;;;;;;;;;;5016387;28;20030;-79
2023/06/16 04:11:11;;;;;;;51.97;23.05;;;;;;;;;;5031554;28;20025;-79
2023/06/16 04:13:37;;;;;;;45.85;21.48;;;;;;;;;;5015865;28;20460;-79
2023/06/16 04:16:02;;;;;;;49.10;22.15;;;;;;;;;;5031902;28;20432;-79
2023/06/16 04:18:28;;;;;;;49.97;23.42;;;;;;;;;;4998809;28;20030;-80
2023/06/16 04:20:53;;;;;;;46.10;22.20;;;;;;;;;;5031296;28;20029;-79
2023/06/16 04:23:18;;;;;;;48.42;23.02;;;;;;;;;;5014704;28;20034;-79
2023/06/16 04:25:44;;;;;;;43.15;22.13;;;;;;;;;;5031243;28;20128;-79
2023/06/16 04:28:14;;;;;;;54.17;21.77;;;;;;;;;;5030929;28;20069;-79
2023/06/16 04:30:42;;;;;;;48.80;22.80;;;;;;;;;;5030696;28;20029;-79
2023/06/16 04:33:08;;;;;;;48.67;23.38;;;;;;;;;;5014620;28;20030;-78
2023/06/16 04:35:34;;;;;;;45.22;22.55;;;;;;;;;;5014600;28;20030;-79
2023/06/16 04:38:06;;;;;;;54.63;24.05;;;;;;;;;;5015616;28;20022;-79
2023/06/16 04:40:31;;;;;;;57.17;25.10;;;;;;;;;;5014042;28;20022;-79
2023/06/16 04:42:57;;;;;;;51.05;23.05;;;;;;;;;;5030460;28;20112;-79
2023/06/16 04:45:22;;;;;;;51.67;23.98;;;;;;;;;;5015067;28;20025;-78
2023/06/16 04:47:50;;;;;;;70.75;25.85;;;;;;;;;;5015105;28;20022;-78
2023/06/16 04:50:16;;;;;;;57.15;24.98;;;;;;;;;;5013235;28;20030;-79
2023/06/16 04:52:42;;;;;;;55.35;24.90;;;;;;;;;;5015910;28;20116;-77
2023/06/16 04:55:08;;;;;;;54.22;24.58;;;;;;;;;;5015201;28;20486;-78
2023/06/16 04:57:36;;;;;;;53.28;23.90;;;;;;;;;;5014568;28;20072;-78
2023/06/16 05:00:05;;;;;;;57.17;24.73;;;;;;;;;;5015246;28;20029;-78
2023/06/16 05:02:30;;;;;;;46.08;22.88;;;;;;;;;;5029888;28;20072;-79
2023/06/16 05:04:56;;;;;;;46.72;22.50;;;;;;;;;;5015175;28;20084;-79
2023/06/16 05:07:22;;;;;;;45.53;23.30;;;;;;;;;;5014923;28;20030;-79
2023/06/16 05:09:47;;;;;;;46.08;23.55;;;;;;;;;;5029930;28;20026;-80
2023/06/16 05:12:12;;;;;;;43.38;21.98;;;;;;;;;;5030079;28;20026;-80
2023/06/16 05:14:38;;;;;;;45.40;23.23;;;;;;;;;;4980922;28;20037;-78
2023/06/16 05:17:04;;;;;;;46.00;23.67;;;;;;;;;;5046474;28;20109;-78
2023/06/16 05:19:31;;;;;;;48.00;24.48;;;;;;;;;;5014612;28;20420;-79
2023/06/16 05:21:57;;;;;;;43.40;22.40;;;;;;;;;;5014049;28;20036;-81
2023/06/16 05:24:22;;;;;;;46.72;23.63;;;;;;;;;;5013859;28;20039;-78
2023/06/16 05:26:50;;;;;;;42.63;22.55;;;;;;;;;;5024744;28;20045;-77
2023/06/16 05:29:16;;;;;;;42.17;22.35;;;;;;;;;;5015767;28;20037;-78
2023/06/16 05:31:41;;;;;;;45.33;22.77;;;;;;;;;;5015225;28;20640;-78
2023/06/16 05:34:07;;;;;;;44.88;22.88;;;;;;;;;;5033947;28;20036;-80
2023/06/16 05:36:35;;;;;;;46.75;22.98;;;;;;;;;;5014947;28;20030;-79
2023/06/16 05:39:01;;;;;;;45.05;23.83;;;;;;;;;;5033639;28;20399;-79
2023/06/16 05:41:28;;;;;;;47.00;23.70;;;;;;;;;;5033240;28;20355;-85
2023/06/16 05:43:54;;;;;;;46.53;24.77;;;;;;;;;;5033259;28;20042;-90
2023/06/16 05:46:20;;;;;;;54.72;26.48;;;;;;;;;;5032201;28;20442;-87
2023/06/16 05:48:45;;;;;;;52.95;26.27;;;;;;;;;;5015468;28;20030;-87
2023/06/16 05:51:11;;;;;;;54.17;27.10;;;;;;;;;;5031245;28;20029;-87
2023/06/16 05:53:36;;;;;;;49.33;26.48;;;;;;;;;;5014038;28;20103;-87
2023/06/16 05:56:02;;;;;;;46.00;24.67;;;;;;;;;;5032153;28;20033;-86
2023/06/16 05:58:27;;;;;;;50.70;24.73;;;;;;;;;;5033257;28;20029;-84
2023/06/16 06:00:53;;;;;;;50.03;26.05;;;;;;;;;;5015057;28;20079;-87
2023/06/16 06:03:18;;;;;;;56.10;27.25;;;;;;;;;;5032884;28;20030;-87
2023/06/16 06:05:44;;;;;;;50.40;28.10;;;;;;;;;;5032521;28;20036;-85
2023/06/16 06:08:10;;;;;;;57.05;28.30;;;;;;;;;;5032810;28;20034;-86
2023/06/16 06:10:35;;;;;;;54.70;28.48;;;;;;;;;;5049164;28;20026;-87
2023/06/16 06:13:03;;;;;;;54.92;28.30;;;;;;;;;;5016310;28;20086;-87
2023/06/16 06:15:29;;;;;;;61.15;29.70;;;;;;;;;;5034003;28;20021;-87
2023/06/16 06:17:54;;;;;;;57.38;28.80;;;;;;;;;;5019269;28;20451;-88
2023/06/16 06:20:20;;;;;;;50.25;28.85;;;;;;;;;;5053882;28;20021;-88
2023/06/16 06:22:45;;;;;;;64.70;29.15;;;;;;;;;;5037681;28;20317;-87
2023/06/16 06:25:13;;;;;;;52.13;26.63;;;;;;;;;;5038873;28;20040;-88
2023/06/16 06:27:39;;;;;;;57.05;26.48;;;;;;;;;;5037760;28;20093;-88
2023/06/16 06:30:05;;;;;;;41.10;22.70;;;;;;;;;;5038715;28;20017;-87
2023/06/16 06:32:30;;;;;;;37.30;20.45;;;;;;;;;;5017933;28;20604;-87
2023/06/16 06:34:56;;;;;;;33.42;19.52;;;;;;;;;;5033710;28;20022;-87
2023/06/16 06:37:26;;;;;;;37.85;19.25;;;;;;;;;;5035290;28;20030;-86
2023/06/16 06:39:52;;;;;;;33.53;18.15;;;;;;;;;;5034335;28;20045;-87
2023/06/16 06:42:17;;;;;;;36.28;17.77;;;;;;;;;;5036096;28;20428;-87
2023/06/16 06:44:43;;;;;;;39.13;18.48;;;;;;;;;;4996484;28;20041;-87
2023/06/16 06:47:08;;;;;;;41.67;19.08;;;;;;;;;;5012760;28;20030;-88
2023/06/16 06:49:34;;;;;;;38.38;18.65;;;;;;;;;;5012993;28;20034;-86
2023/06/16 06:51:59;;;;;;;39.60;19.08;;;;;;;;;;5028829;28;20080;-88
2023/06/16 06:54:25;;;;;;;34.17;18.50;;;;;;;;;;5015321;28;20057;-89
2023/06/16 06:56:51;;;;;;;33.78;19.25;;;;;;;;;;5033640;28;20029;-87
2023/06/16 06:59:17;;;;;;;39.83;19.33;;;;;;;;;;5031669;28;20444;-87
2023/06/16 07:01:42;;;;;;;40.47;19.20;;;;;;;;;;5032382;28;20088;-86
2023/06/16 07:04:07;;;;;;;44.28;20.23;;;;;;;;;;5048742;28;20033;-86
2023/06/16 07:06:33;;;;;;;44.50;20.25;;;;;;;;;;5046742;28;20052;-88
2023/06/16 07:08:58;;;;;;;42.35;19.17;;;;;;;;;;5014357;28;20033;-87
2023/06/16 07:11:24;;;;;;;37.08;19.33;;;;;;;;;;5030489;28;20110;-88
2023/06/16 07:13:49;;;;;;;37.40;19.73;;;;;;;;;;5032209;28;20098;-87
2023/06/16 07:16:15;;;;;;;39.17;20.17;;;;;;;;;;5046432;28;20095;-87
2023/06/16 07:18:40;;;;;;;43.88;20.20;;;;;;;;;;5010117;28;20191;-87
2023/06/16 07:21:07;;;;;;;34.63;19.55;;;;;;;;;;5050273;28;20017;-85
2023/06/16 07:23:33;;;;;;;40.83;19.17;;;;;;;;;;5017522;28;20038;-87
2023/06/16 07:26:00;;;;;;;33.75;18.58;;;;;;;;;;5035434;28;20021;-87
2023/06/16 07:28:25;;;;;;;33.80;18.25;;;;;;;;;;5033207;28;20034;-90
2023/06/16 07:30:57;;;;;;;32.20;17.35;;;;;;;;;;5016557;28;20039;-85
2023/06/16 07:33:22;;;;;;;37.92;18.00;;;;;;;;;;5035920;28;20116;-87
2023/06/16 07:35:48;;;;;;;34.15;18.35;;;;;;;;;;5032313;28;20407;-87
2023/06/16 07:38:14;;;;;;;37.50;19.67;;;;;;;;;;5036164;28;20029;-89
2023/06/16 07:40:40;;;;;;;34.53;17.65;;;;;;;;;;5009237;28;20033;-86
2023/06/16 07:43:05;;;;;;;32.78;18.48;;;;;;;;;;4998835;28;20440;-88
2023/06/16 07:45:33;;;;;;;30.00;17.13;;;;;;;;;;5034024;28;20052;-86
2023/06/16 07:47:59;;;;;;;28.92;16.75;;;;;;;;;;5018167;28;20380;-87
2023/06/16 07:50:24;;;;;;;27.13;15.65;;;;;;;;;;5018611;28;20355;-85
2023/06/16 07:52:50;;;;;;;28.27;16.00;;;;;;;;;;5017989;28;20036;-88
2023/06/16 07:55:16;;;;;;;30.42;16.27;;;;;;;;;;5035263;28;20033;-88
2023/06/16 07:57:41;;;;;;;25.50;14.93;;;;;;;;;;5016702;28;20116;-90
2023/06/16 08:00:10;;;;;;;25.48;13.98;;;;;;;;;;5016715;28;20041;-89
2023/06/16 08:02:35;;;;;;;29.88;14.70;;;;;;;;;;5014552;28;20478;-88
2023/06/16 08:05:01;;;;;;;23.23;14.73;;;;;;;;;;4999212;28;20033;-88
2023/06/16 08:07:26;;;;;;;26.85;13.35;;;;;;;;;;5032463;28;20026;-89
2023/06/16 08:09:52;;;;;;;21.00;12.15;;;;;;;;;;5033396;28;20068;-84
2023/06/16 08:12:17;;;;;;;19.25;12.52;;;;;;;;;;5033896;28;20127;-85
2023/06/16 08:14:42;;;;;;;17.58;11.70;;;;;;;;;;5034699;28;20426;-87
2023/06/16 08:17:08;;;;;;;27.10;13.23;;;;;;;;;;5035491;28;20112;-88
2023/06/16 08:19:33;;;;;;;19.83;12.70;;;;;;;;;;5018454;28;20105;-86
2023/06/16 08:21:59;;;;;;;20.10;12.75;;;;;;;;;;5019013;28;20439;-88
2023/06/16 08:24:25;;;;;;;17.33;12.32;;;;;;;;;;5045787;28;20076;-86
2023/06/16 08:26:50;;;;;;;21.13;12.55;;;;;;;;;;5027035;28;20030;-87
2023/06/16 08:29:15;;;;;;;20.00;12.60;;;;;;;;;;5044555;28;20033;-89
2023/06/16 08:31:41;;;;;;;22.33;12.23;;;;;;;;;;5006801;28;20026;-88
2023/06/16 08:34:07;;;;;;;23.13;13.65;;;;;;;;;;5018241;28;20029;-87
2023/06/16 08:36:33;;;;;;;21.13;13.57;;;;;;;;;;5019052;28;20028;-87
2023/06/16 08:38:58;;;;;;;28.33;15.43;;;;;;;;;;5036013;28;20033;-87
2023/06/16 08:41:25;;;;;;;30.00;15.68;;;;;;;;;;5018613;28;20040;-88
2023/06/16 08:43:50;;;;;;;26.17;15.90;;;;;;;;;;5017882;28;20032;-86
2023/06/16 08:46:16;;;;;;;25.55;16.35;;;;;;;;;;5000459;28;20022;-88
2023/06/16 08:48:41;;;;;;;27.35;17.77;;;;;;;;;;4997813;28;20349;-88
2023/06/16 08:51:14;;;;;;;31.10;17.33;;;;;;;;;;4999084;28;20482;-88
2023/06/16 08:53:39;;;;;;;29.63;18.25;;;;;;;;;;5012702;28;20026;-88
2023/06/16 08:56:05;;;;;;;28.80;18.27;;;;;;;;;;5050946;28;20033;-87
2023/06/16 08:58:30;;;;;;;32.85;18.20;;;;;;;;;;5017115;28;20033;-87
2023/06/16 09:01:00;;;;;;;34.83;19.25;;;;;;;;;;5049663;28;20090;-88
2023/06/16 09:03:26;;;;;;;31.58;18.48;;;;;;;;;;5026649;28;20046;-86
2023/06/16 09:05:52;;;;;;;51.78;28.13;;;;;;;;;;5016618;28;20033;-86
2023/06/16 09:08:19;;;;;;;33.90;19.27;;;;;;;;;;4998431;28;20533;-85
2023/06/16 09:10:48;;;;;;;32.90;19.08;;;;;;;;;;5028353;28;20148;-88
2023/06/16 09:13:16;;;;;;;29.97;18.87;;;;;;;;;;5033662;28;20041;-87
2023/06/16 09:15:42;;;;;;;35.47;19.23;;;;;;;;;;5032106;28;20034;-88
2023/06/16 09:18:08;;;;;;;28.95;17.30;;;;;;;;;;5016685;28;20060;-89
2023/06/16 09:20:37;;;;;;;27.58;18.48;;;;;;;;;;4998348;28;20093;-87
2023/06/16 09:23:05;;;;;;;28.58;18.58;;;;;;;;;;5046228;28;20033;-88
2023/06/16 09:25:34;;;;;;;25.80;16.42;;;;;;;;;;4997548;28;20042;-86
2023/06/16 09:28:19;;;;;;;28.38;16.05;;;;;;;;;;5047348;28;20099;-86
2023/06/16 09:30:44;;;;;;;26.38;14.90;;;;;;;;;;5014350;28;20462;-84
2023/06/16 09:33:10;;;;;;;28.98;14.75;;;;;;;;;;5014714;28;20057;-84
2023/06/16 09:35:36;;;;;;;22.83;13.93;;;;;;;;;;5030389;28;20071;-85
2023/06/16 09:38:03;;;;;;;19.65;12.52;;;;;;;;;;5051526;28;20072;-83
2023/06/16 09:40:30;;;;;;;18.83;13.40;;;;;;;;;;5017728;28;20033;-86
2023/06/16 09:43:00;;;;;;;21.13;13.02;;;;;;;;;;5033333;28;20041;-87
2023/06/16 09:45:35;;;;;;;19.42;12.63;;;;;;;;;;5034246;28;20374;-85
2023/06/16 09:48:05;;;;;;;23.98;12.65;;;;;;;;;;5028818;28;20029;-86
2023/06/16 09:50:30;;;;;;;23.15;13.20;;;;;;;;;;5049260;28;20450;-84
2023/06/16 09:52:57;;;;;;;21.27;13.23;;;;;;;;;;5035485;28;20064;-86
2023/06/16 09:55:26;;;;;;;19.50;12.52;;;;;;;;;;5033023;28;20557;-84
2023/06/16 09:57:51;;;;;;;23.38;13.70;;;;;;;;;;5031669;28;20521;-85
2023/06/16 10:00:17;;;;;;;24.95;13.55;;;;;;;;;;5033531;28;20034;-85
2023/06/16 10:02:43;;;;;;;19.55;12.85;;;;;;;;;;5033330;28;20502;-85
2023/06/16 10:05:10;;;;;;;19.75;13.23;;;;;;;;;;5044776;28;20416;-86
2023/06/16 10:07:59;;;;;;;23.88;13.35;;;;;;;;;;5031472;28;20034;-85
2023/06/16 10:10:27;;;;;;;22.50;13.65;;;;;;;;;;5015224;28;20431;-87
2023/06/16 10:12:53;;;;;;;30.80;14.07;;;;;;;;;;5027505;28;20029;-87
2023/06/16 10:15:23;;;;;;;23.73;13.80;;;;;;;;;;5046536;28;20108;-87
2023/06/16 10:17:49;;;;;;;22.10;13.93;;;;;;;;;;5033629;28;20060;-86
2023/06/16 10:20:20;;;;;;;17.67;13.40;;;;;;;;;;5031564;28;20022;-85
2023/06/16 10:22:46;;;;;;;19.80;13.23;;;;;;;;;;5015896;28;20025;-85
2023/06/16 10:25:11;;;;;;;23.33;13.27;;;;;;;;;;5015070;28;20474;-85
2023/06/16 10:27:39;;;;;;;23.15;13.25;;;;;;;;;;5033789;28;20492;-86
2023/06/16 10:30:06;;;;;;;17.00;12.98;;;;;;;;;;5016104;28;20087;-85
2023/06/16 10:32:32;;;;;;;21.20;14.15;;;;;;;;;;5016067;28;20022;-87
2023/06/16 10:35:00;;;;;;;20.67;12.30;;;;;;;;;;5049476;28;20478;-87
2023/06/16 10:37:27;;;;;;;21.42;11.80;;;;;;;;;;5032733;28;20041;-87
2023/06/16 10:39:56;;;;;;;23.15;12.15;;;;;;;;;;5015828;28;20033;-86
2023/06/16 10:42:22;;;;;;;;;;;;;;;;;;5016311;28;20056;-88
2023/06/16 10:44:47;;;;;;;21.17;12.93;;;;;;;;;;5015791;28;19912;-86
2023/06/16 10:47:13;;;;;;;20.42;12.13;;;;;;;;;;5033471;28;20025;-86
2023/06/16 10:50:00;;;;;;;22.65;12.07;;;;;;;;;;5033538;28;20025;-86
2023/06/16 10:52:28;;;;;;;23.77;13.02;;;;;;;;;;5033583;28;20061;-87
2023/06/16 10:54:55;;;;;;;25.40;11.43;;;;;;;;;;5034789;28;20432;-85
2023/06/16 10:57:21;;;;;;;17.08;11.77;;;;;;;;;;5020154;28;20146;-86
2023/06/16 11:00:11;;;;;;;22.92;12.07;;;;;;;;;;5019935;28;20095;-86
2023/06/16 11:02:46;;;;;;;22.05;11.80;;;;;;;;;;5036298;28;20136;-84
2023/06/16 11:05:12;;;;;;;19.15;11.82;;;;;;;;;;5019488;28;20041;-85
2023/06/16 11:08:06;;;;;;;15.98;11.63;;;;;;;;;;5019813;28;20438;-85
2023/06/16 11:10:49;;;;;;;17.27;11.70;;;;;;;;;;5037109;28;20049;-88
2023/06/16 11:13:14;;;;;;;16.60;11.25;;;;;;;;;;5019295;28;20362;-86
2023/06/16 11:15:41;;;;;;;20.02;11.90;;;;;;;;;;5037158;28;20041;-86
2023/06/16 11:18:07;;;;;;;24.83;11.23;;;;;;;;;;5037015;28;20057;-86
2023/06/16 11:20:35;;;;;;;17.85;11.25;;;;;;;;;;5037414;28;20075;-84
2023/06/16 11:23:02;;;;;;;19.00;10.43;;;;;;;;;;5035904;28;20124;-85
2023/06/16 11:25:27;;;;;;;17.50;10.82;;;;;;;;;;5036727;28;20366;-85
2023/06/16 11:27:53;;;;;;;18.20;11.48;;;;;;;;;;5018769;28;20033;-85
2023/06/16 11:30:19;;;;;;;15.93;10.68;;;;;;;;;;5035384;28;20032;-85
2023/06/16 11:32:44;;;;;;;20.27;11.77;;;;;;;;;;5036601;28;20112;-85
2023/06/16 11:35:10;;;;;;;14.32;11.32;;;;;;;;;;5018751;28;20048;-86
2023/06/16 11:37:51;;;;;;;30.33;10.98;;;;;;;;;;5018951;28;20018;-85
2023/06/16 11:40:28;;;;;;;16.25;10.60;;;;;;;;;;5036562;28;20037;-86
2023/06/16 11:42:55;;;;;;;18.20;11.30;;;;;;;;;;5018646;28;20418;-84
2023/06/16 11:45:21;;;;;;;21.35;11.02;;;;;;;;;;5036298;28;20080;-86
2023/06/16 11:47:47;;;;;;;14.70;10.80;;;;;;;;;;5036400;28;20053;-85
2023/06/16 11:50:12;;;;;;;14.10;10.75;;;;;;;;;;5035279;28;20036;-87
2023/06/16 11:52:37;;;;;;;13.27;10.70;;;;;;;;;;5018532;28;20029;-85
2023/06/16 11:55:03;;;;;;;15.05;10.55;;;;;;;;;;5018132;28;20393;-83
2023/06/16 11:57:29;;;;;;;18.63;10.98;;;;;;;;;;5017970;28;20037;-85
2023/06/16 11:59:55;;;;;;;18.58;10.55;;;;;;;;;;5036104;28;20029;-84
2023/06/16 12:02:20;;;;;;;17.38;10.98;;;;;;;;;;5018204;28;20041;-84
2023/06/16 12:04:45;;;;;;;19.35;10.85;;;;;;;;;;5002037;28;20090;-85
2023/06/16 12:07:11;;;;;;;15.68;9.48;;;;;;;;;;5017534;28;20025;-83
2023/06/16 12:09:37;;;;;;;14.13;9.20;;;;;;;;;;5018230;28;20026;-84
2023/06/16 12:12:07;;;;;;;14.50;8.75;;;;;;;;;;5035608;28;20028;-84
2023/06/16 12:14:36;;;;;;;13.68;8.70;;;;;;;;;;5018278;28;20037;-84
2023/06/16 12:17:02;;;;;;;11.57;8.18;;;;;;;;;;5018837;28;20025;-83
2023/06/16 12:19:27;;;;;;;13.07;7.03;;;;;;;;;;5035825;28;20028;-84
2023/06/16 12:21:58;;;;;;;10.85;7.50;;;;;;;;;;5035855;28;20035;-84
2023/06/16 12:24:24;;;;;;;11.80;7.60;;;;;;;;;;5051255;28;20128;-87
2023/06/16 12:26:52;;;;;;;17.23;8.57;;;;;;;;;;5050955;28;20494;-85
2023/06/16 12:29:18;;;;;;;12.95;7.38;;;;;;;;;;5050939;28;20056;-84
2023/06/16 12:31:56;;;;;;;13.95;7.22;;;;;;;;;;5034522;28;20148;-84
2023/06/16 12:34:38;;;;;;;11.98;6.63;;;;;;;;;;5035856;28;20175;-85
2023/06/16 12:37:07;;;;;;;13.05;6.53;;;;;;;;;;5019699;28;20033;-84
2023/06/16 12:39:33;;;;;;;12.05;5.72;;;;;;;;;;5001978;28;20041;-79
2023/06/16 12:42:03;;;;;;;9.15;5.50;;;;;;;;;;5017837;28;20030;-81
2023/06/16 12:44:45;;;;;;;6.65;5.28;;;;;;;;;;5017507;28;20041;-83
2023/06/16 12:47:12;;;;;;;12.68;5.32;;;;;;;;;;5034041;28;20026;-81
2023/06/16 12:49:38;;;;;;;12.90;5.40;;;;;;;;;;5017527;28;20033;-80
2023/06/16 12:52:05;;;;;;;9.13;4.40;;;;;;;;;;5035213;28;20087;-87
2023/06/16 12:54:30;;;;;;;5.35;4.10;;;;;;;;;;5017492;28;20025;-84
2023/06/16 12:56:56;;;;;;;7.53;3.97;;;;;;;;;;5017294;28;20103;-83
2023/06/16 12:59:21;;;;;;;8.27;4.00;;;;;;;;;;5034971;28;20025;-84
2023/06/16 13:01:47;;;;;;;5.88;4.07;;;;;;;;;;5033558;28;20045;-85
2023/06/16 13:04:12;;;;;;;5.45;3.90;;;;;;;;;;5035145;28;20078;-84
2023/06/16 13:06:38;;;;;;;10.30;4.53;;;;;;;;;;5017702;28;20034;-84
2023/06/16 13:09:03;;;;;;;8.15;3.97;;;;;;;;;;5049916;28;20408;-83
2023/06/16 13:11:29;;;;;;;4.82;3.45;;;;;;;;;;5034754;28;20037;-83
2023/06/16 13:13:55;;;;;;;6.85;3.90;;;;;;;;;;5035017;28;20123;-84
2023/06/16 13:16:20;;;;;;;4.40;3.53;;;;;;;;;;5033283;28;20032;-83
2023/06/16 13:18:46;;;;;;;5.38;3.72;;;;;;;;;;5016757;28;20463;-83
2023/06/16 13:21:11;;;;;;;4.10;3.15;;;;;;;;;;5034723;28;20025;-83
2023/06/16 13:23:43;;;;;;;4.53;3.40;;;;;;;;;;5016852;28;20029;-84
2023/06/16 13:26:12;;;;;;;6.15;3.33;;;;;;;;;;5034804;28;20033;-83
2023/06/16 13:28:38;;;;;;;4.90;2.97;;;;;;;;;;5017308;28;20391;-83
2023/06/16 13:31:07;;;;;;;12.05;3.90;;;;;;;;;;5035018;28;20060;-82
2023/06/16 13:33:33;;;;;;;15.48;4.00;;;;;;;;;;5016923;28;20053;-82
2023/06/16 13:35:59;;;;;;;9.60;3.85;;;;;;;;;;5016921;28;20044;-82
2023/06/16 13:38:24;;;;;;;11.50;3.72;;;;;;;;;;5034422;28;20116;-82
2023/06/16 13:40:50;;;;;;;9.55;3.67;;;;;;;;;;5034946;28;20060;-83
2023/06/16 13:43:15;;;;;;;7.85;3.75;;;;;;;;;;5034410;28;20451;-84
2023/06/16 13:45:41;;;;;;;8.77;3.78;;;;;;;;;;5034702;28;20060;-83
2023/06/16 13:48:06;;;;;;;8.82;4.45;;;;;;;;;;5034487;28;20465;-84
2023/06/16 13:50:32;;;;;;;8.10;3.92;;;;;;;;;;5034762;28;20033;-83
2023/06/16 13:52:57;;;;;;;13.70;4.45;;;;;;;;;;5033085;28;20371;-83
2023/06/16 13:55:23;;;;;;;9.27;4.35;;;;;;;;;;5034336;28;20034;-83
2023/06/16 13:57:50;;;;;;;22.60;4.65;;;;;;;;;;5033436;28;20232;-84
2023/06/16 14:00:16;;;;;;;9.55;4.75;;;;;;;;;;5034504;28;20534;-84
2023/06/16 14:02:41;;;;;;;20.13;4.80;;;;;;;;;;5000388;28;20110;-84
2023/06/16 14:05:07;;;;;;;9.15;4.70;;;;;;;;;;5034297;28;20120;-84
2023/06/16 14:07:33;;;;;;;9.35;4.78;;;;;;;;;;5016205;28;20104;-84
2023/06/16 14:09:58;;;;;;;9.15;4.93;;;;;;;;;;5017023;28;20035;-85
2023/06/16 14:12:24;;;;;;;12.95;5.07;;;;;;;;;;5034088;28;20426;-84
2023/06/16 14:14:49;;;;;;;9.95;4.53;;;;;;;;;;5034031;28;20064;-82
2023/06/16 14:17:15;;;;;;;7.35;4.70;;;;;;;;;;5032908;28;20073;-84
2023/06/16 14:19:40;;;;;;;9.32;5.35;;;;;;;;;;5034232;28;20083;-83